sensor_id;sensor_type;location;lat;lon;timestamp;P1;durP1;ratioP1;P2;durP2;ratioP2
11539;SDS011;5826;54.756;9.192;2022-11-14T00:00:08;3.08;;;2.72;;
11539;SDS011;5826;54.756;9.192;2022-11-14T00:02:35;3.15;;;2.85;;
11539;SDS011;5826;54.756;9.192;2022-11-14T00:05:01;3.28;;;2.97;;
11539;SDS011;5826;54.756;9.192;2022-11-14T00:07:30;4.05;;;3.60;;
11539;SDS011;5826;54.756;9.192;2022-11-14T00:09:57;4.15;;;3.67;;
11539;SDS011;5826;54.756;9.192;2022-11-14T00:12:22;4.72;;;4.22;;
11539;SDS011;5826;54.756;9.192;2022-11-14T00:14:48;5.05;;;4.40;;
11539;SDS011;5826;54.756;9.192;2022-11-14T00:17:14;3.70;;;3.30;;
11539;SDS011;5826;54.756;9.192;2022-11-14T00:19:40;3.78;;;3.42;;
11539;SDS011;5826;54.756;9.192;2022-11-14T00:22:05;3.38;;;3.08;;
11539;SDS011;5826;54.756;9.192;2022-11-14T00:24:31;3.97;;;3.35;;
11539;SDS011;5826;54.756;9.192;2022-11-14T00:26:56;4.13;;;3.72;;
11539;SDS011;5826;54.756;9.192;2022-11-14T00:29:22;4.32;;;3.80;;
11539;SDS011;5826;54.756;9.192;2022-11-14T00:31:47;3.53;;;3.22;;
11539;SDS011;5826;54.756;9.192;2022-11-14T00:34:13;4.00;;;3.60;;
11539;SDS011;5826;54.756;9.192;2022-11-14T00:36:39;4.05;;;3.65;;
11539;SDS011;5826;54.756;9.192;2022-11-14T00:39:04;3.92;;;3.50;;
11539;SDS011;5826;54.756;9.192;2022-11-14T00:41:30;5.03;;;3.80;;
11539;SDS011;5826;54.756;9.192;2022-11-14T00:43:55;4.28;;;3.67;;
11539;SDS011;5826;54.756;9.192;2022-11-14T00:46:21;4.70;;;3.90;;
11539;SDS011;5826;54.756;9.192;2022-11-14T00:48:46;4.40;;;4.00;;
11539;SDS011;5826;54.756;9.192;2022-11-14T00:51:12;4.55;;;4.07;;
11539;SDS011;5826;54.756;9.192;2022-11-14T00:53:37;4.55;;;4.10;;
11539;SDS011;5826;54.756;9.192;2022-11-14T00:56:03;4.88;;;4.38;;
11539;SDS011;5826;54.756;9.192;2022-11-14T00:58:29;5.85;;;5.25;;
11539;SDS011;5826;54.756;9.192;2022-11-14T01:00:54;4.72;;;4.22;;
11539;SDS011;5826;54.756;9.192;2022-11-14T01:03:20;4.78;;;4.25;;
11539;SDS011;5826;54.756;9.192;2022-11-14T01:05:46;4.78;;;4.28;;
11539;SDS011;5826;54.756;9.192;2022-11-14T01:08:14;5.20;;;4.70;;
11539;SDS011;5826;54.756;9.192;2022-11-14T01:10:42;4.80;;;4.30;;
11539;SDS011;5826;54.756;9.192;2022-11-14T01:13:10;4.88;;;4.20;;
11539;SDS011;5826;54.756;9.192;2022-11-14T01:15:41;5.25;;;4.75;;
11539;SDS011;5826;54.756;9.192;2022-11-14T01:18:11;4.78;;;4.25;;
11539;SDS011;5826;54.756;9.192;2022-11-14T01:20:40;5.30;;;4.63;;
11539;SDS011;5826;54.756;9.192;2022-11-14T01:23:07;5.40;;;4.78;;
11539;SDS011;5826;54.756;9.192;2022-11-14T01:25:34;5.40;;;4.90;;
11539;SDS011;5826;54.756;9.192;2022-11-14T01:28:00;6.05;;;4.95;;
11539;SDS011;5826;54.756;9.192;2022-11-14T01:30:29;5.50;;;5.00;;
11539;SDS011;5826;54.756;9.192;2022-11-14T01:32:54;6.10;;;5.10;;
11539;SDS011;5826;54.756;9.192;2022-11-14T01:35:20;6.07;;;5.20;;
11539;SDS011;5826;54.756;9.192;2022-11-14T01:37:45;5.40;;;4.90;;
11539;SDS011;5826;54.756;9.192;2022-11-14T01:40:11;5.75;;;5.03;;
11539;SDS011;5826;54.756;9.192;2022-11-14T01:42:36;5.80;;;5.25;;
11539;SDS011;5826;54.756;9.192;2022-11-14T01:45:40;6.65;;;5.03;;
11539;SDS011;5826;54.756;9.192;2022-11-14T01:48:09;5.45;;;4.85;;
11539;SDS011;5826;54.756;9.192;2022-11-14T01:50:52;5.57;;;5.03;;
11539;SDS011;5826;54.756;9.192;2022-11-14T01:53:21;5.57;;;5.07;;
11539;SDS011;5826;54.756;9.192;2022-11-14T01:55:47;5.45;;;4.93;;
11539;SDS011;5826;54.756;9.192;2022-11-14T01:58:13;5.75;;;4.80;;
11539;SDS011;5826;54.756;9.192;2022-11-14T02:00:40;5.57;;;5.07;;
11539;SDS011;5826;54.756;9.192;2022-11-14T02:03:06;7.00;;;5.35;;
11539;SDS011;5826;54.756;9.192;2022-11-14T02:05:32;5.70;;;4.95;;
11539;SDS011;5826;54.756;9.192;2022-11-14T02:07:58;5.95;;;5.35;;
11539;SDS011;5826;54.756;9.192;2022-11-14T02:10:24;6.38;;;5.72;;
11539;SDS011;5826;54.756;9.192;2022-11-14T02:12:49;6.22;;;5.60;;
11539;SDS011;5826;54.756;9.192;2022-11-14T02:15:16;6.00;;;5.45;;
11539;SDS011;5826;54.756;9.192;2022-11-14T02:17:42;6.30;;;5.70;;
11539;SDS011;5826;54.756;9.192;2022-11-14T02:22:34;7.32;;;6.47;;
11539;SDS011;5826;54.756;9.192;2022-11-14T02:25:00;7.53;;;6.82;;
11539;SDS011;5826;54.756;9.192;2022-11-14T02:27:26;8.25;;;7.45;;
11539;SDS011;5826;54.756;9.192;2022-11-14T02:29:52;8.43;;;7.53;;
11539;SDS011;5826;54.756;9.192;2022-11-14T02:32:17;8.98;;;8.07;;
11539;SDS011;5826;54.756;9.192;2022-11-14T02:34:43;10.05;;;9.00;;
11539;SDS011;5826;54.756;9.192;2022-11-14T02:37:08;9.25;;;8.27;;
11539;SDS011;5826;54.756;9.192;2022-11-14T02:39:34;10.45;;;9.45;;
11539;SDS011;5826;54.756;9.192;2022-11-14T02:41:59;10.25;;;9.25;;
11539;SDS011;5826;54.756;9.192;2022-11-14T02:44:24;11.48;;;10.27;;
11539;SDS011;5826;54.756;9.192;2022-11-14T02:46:50;10.55;;;9.55;;
11539;SDS011;5826;54.756;9.192;2022-11-14T02:49:15;11.05;;;9.88;;
11539;SDS011;5826;54.756;9.192;2022-11-14T02:51:41;11.20;;;10.10;;
11539;SDS011;5826;54.756;9.192;2022-11-14T02:54:07;10.48;;;9.45;;
11539;SDS011;5826;54.756;9.192;2022-11-14T02:56:32;10.85;;;9.75;;
11539;SDS011;5826;54.756;9.192;2022-11-14T02:58:58;11.02;;;9.93;;
11539;SDS011;5826;54.756;9.192;2022-11-14T03:01:23;12.38;;;11.18;;
11539;SDS011;5826;54.756;9.192;2022-11-14T03:03:49;13.45;;;12.10;;
11539;SDS011;5826;54.756;9.192;2022-11-14T03:06:14;11.10;;;9.90;;
11539;SDS011;5826;54.756;9.192;2022-11-14T03:08:40;11.50;;;10.30;;
11539;SDS011;5826;54.756;9.192;2022-11-14T03:11:06;12.10;;;10.77;;
11539;SDS011;5826;54.756;9.192;2022-11-14T03:13:33;12.40;;;10.82;;
11539;SDS011;5826;54.756;9.192;2022-11-14T03:16:06;12.45;;;10.82;;
11539;SDS011;5826;54.756;9.192;2022-11-14T03:18:33;11.77;;;10.57;;
11539;SDS011;5826;54.756;9.192;2022-11-14T03:21:08;12.23;;;10.93;;
11539;SDS011;5826;54.756;9.192;2022-11-14T03:23:36;12.05;;;10.77;;
11539;SDS011;5826;54.756;9.192;2022-11-14T03:26:03;13.80;;;11.73;;
11539;SDS011;5826;54.756;9.192;2022-11-14T03:28:31;13.50;;;11.55;;
11539;SDS011;5826;54.756;9.192;2022-11-14T03:30:56;12.10;;;10.80;;
11539;SDS011;5826;54.756;9.192;2022-11-14T03:33:22;13.05;;;11.50;;
11539;SDS011;5826;54.756;9.192;2022-11-14T03:35:48;11.98;;;10.63;;
11539;SDS011;5826;54.756;9.192;2022-11-14T03:38:15;14.38;;;12.43;;
11539;SDS011;5826;54.756;9.192;2022-11-14T03:40:41;13.85;;;12.18;;
11539;SDS011;5826;54.756;9.192;2022-11-14T03:43:06;13.43;;;11.90;;
11539;SDS011;5826;54.756;9.192;2022-11-14T03:45:32;15.02;;;12.65;;
11539;SDS011;5826;54.756;9.192;2022-11-14T03:47:57;17.88;;;14.80;;
11539;SDS011;5826;54.756;9.192;2022-11-14T03:50:23;14.00;;;12.43;;
11539;SDS011;5826;54.756;9.192;2022-11-14T03:52:49;15.00;;;12.88;;
11539;SDS011;5826;54.756;9.192;2022-11-14T03:55:14;14.63;;;11.80;;
11539;SDS011;5826;54.756;9.192;2022-11-14T03:57:40;14.25;;;12.70;;
11539;SDS011;5826;54.756;9.192;2022-11-14T04:00:06;14.23;;;12.57;;
11539;SDS011;5826;54.756;9.192;2022-11-14T04:02:32;16.55;;;13.18;;
11539;SDS011;5826;54.756;9.192;2022-11-14T04:04:58;14.48;;;12.35;;
11539;SDS011;5826;54.756;9.192;2022-11-14T04:07:23;14.45;;;12.88;;
11539;SDS011;5826;54.756;9.192;2022-11-14T04:09:49;17.50;;;13.95;;
11539;SDS011;5826;54.756;9.192;2022-11-14T04:12:15;14.68;;;12.35;;
11539;SDS011;5826;54.756;9.192;2022-11-14T04:14:42;15.68;;;13.50;;
11539;SDS011;5826;54.756;9.192;2022-11-14T04:17:07;15.75;;;13.57;;
11539;SDS011;5826;54.756;9.192;2022-11-14T04:19:33;15.05;;;12.95;;
11539;SDS011;5826;54.756;9.192;2022-11-14T04:21:58;17.08;;;13.68;;
11539;SDS011;5826;54.756;9.192;2022-11-14T04:24:24;16.17;;;13.52;;
11539;SDS011;5826;54.756;9.192;2022-11-14T04:26:49;16.58;;;14.23;;
11539;SDS011;5826;54.756;9.192;2022-11-14T04:29:15;16.65;;;14.07;;
11539;SDS011;5826;54.756;9.192;2022-11-14T04:31:40;16.10;;;13.57;;
11539;SDS011;5826;54.756;9.192;2022-11-14T04:34:06;16.23;;;13.75;;
11539;SDS011;5826;54.756;9.192;2022-11-14T04:36:31;17.55;;;14.80;;
11539;SDS011;5826;54.756;9.192;2022-11-14T04:38:57;17.95;;;14.23;;
11539;SDS011;5826;54.756;9.192;2022-11-14T04:41:22;16.90;;;14.50;;
11539;SDS011;5826;54.756;9.192;2022-11-14T04:43:48;17.30;;;13.98;;
11539;SDS011;5826;54.756;9.192;2022-11-14T04:46:13;16.30;;;13.88;;
11539;SDS011;5826;54.756;9.192;2022-11-14T04:48:39;18.02;;;14.75;;
11539;SDS011;5826;54.756;9.192;2022-11-14T04:51:04;17.27;;;13.52;;
11539;SDS011;5826;54.756;9.192;2022-11-14T04:53:30;16.35;;;13.93;;
11539;SDS011;5826;54.756;9.192;2022-11-14T04:55:55;16.73;;;13.68;;
11539;SDS011;5826;54.756;9.192;2022-11-14T04:58:21;18.80;;;15.45;;
11539;SDS011;5826;54.756;9.192;2022-11-14T05:00:46;17.17;;;13.63;;
11539;SDS011;5826;54.756;9.192;2022-11-14T05:03:11;16.27;;;13.25;;
11539;SDS011;5826;54.756;9.192;2022-11-14T05:05:37;15.77;;;12.73;;
11539;SDS011;5826;54.756;9.192;2022-11-14T05:08:03;16.35;;;13.80;;
11539;SDS011;5826;54.756;9.192;2022-11-14T05:10:28;15.93;;;13.40;;
11539;SDS011;5826;54.756;9.192;2022-11-14T05:12:54;15.75;;;13.48;;
11539;SDS011;5826;54.756;9.192;2022-11-14T05:15:20;16.92;;;13.45;;
11539;SDS011;5826;54.756;9.192;2022-11-14T05:17:45;14.05;;;12.35;;
11539;SDS011;5826;54.756;9.192;2022-11-14T05:20:12;16.33;;;13.48;;
11539;SDS011;5826;54.756;9.192;2022-11-14T05:22:37;16.48;;;13.93;;
11539;SDS011;5826;54.756;9.192;2022-11-14T05:25:03;15.93;;;13.65;;
11539;SDS011;5826;54.756;9.192;2022-11-14T05:27:29;16.20;;;13.32;;
11539;SDS011;5826;54.756;9.192;2022-11-14T05:29:55;15.68;;;13.10;;
11539;SDS011;5826;54.756;9.192;2022-11-14T05:32:20;15.73;;;13.40;;
11539;SDS011;5826;54.756;9.192;2022-11-14T05:34:46;16.02;;;13.27;;
11539;SDS011;5826;54.756;9.192;2022-11-14T05:37:11;15.57;;;12.88;;
11539;SDS011;5826;54.756;9.192;2022-11-14T05:39:37;14.95;;;13.30;;
11539;SDS011;5826;54.756;9.192;2022-11-14T05:42:03;16.80;;;13.65;;
11539;SDS011;5826;54.756;9.192;2022-11-14T05:44:28;16.20;;;13.10;;
11539;SDS011;5826;54.756;9.192;2022-11-14T05:46:54;14.65;;;12.90;;
11539;SDS011;5826;54.756;9.192;2022-11-14T05:49:19;16.85;;;14.07;;
11539;SDS011;5826;54.756;9.192;2022-11-14T05:51:45;15.98;;;13.40;;
11539;SDS011;5826;54.756;9.192;2022-11-14T05:54:11;15.75;;;13.25;;
11539;SDS011;5826;54.756;9.192;2022-11-14T05:56:36;17.50;;;12.90;;
11539;SDS011;5826;54.756;9.192;2022-11-14T05:59:02;15.38;;;13.45;;
11539;SDS011;5826;54.756;9.192;2022-11-14T06:01:27;16.58;;;13.45;;
11539;SDS011;5826;54.756;9.192;2022-11-14T06:03:53;16.30;;;13.55;;
11539;SDS011;5826;54.756;9.192;2022-11-14T06:06:20;16.95;;;14.15;;
11539;SDS011;5826;54.756;9.192;2022-11-14T06:08:46;14.98;;;13.25;;
11539;SDS011;5826;54.756;9.192;2022-11-14T06:11:13;16.85;;;14.18;;
11539;SDS011;5826;54.756;9.192;2022-11-14T06:13:40;15.70;;;13.55;;
11539;SDS011;5826;54.756;9.192;2022-11-14T06:16:08;16.35;;;13.60;;
11539;SDS011;5826;54.756;9.192;2022-11-14T06:18:35;15.18;;;12.95;;
11539;SDS011;5826;54.756;9.192;2022-11-14T06:23:37;15.07;;;12.60;;
11539;SDS011;5826;54.756;9.192;2022-11-14T06:26:04;16.10;;;13.75;;
11539;SDS011;5826;54.756;9.192;2022-11-14T06:28:31;16.17;;;13.60;;
11539;SDS011;5826;54.756;9.192;2022-11-14T06:31:00;15.27;;;13.02;;
11539;SDS011;5826;54.756;9.192;2022-11-14T06:33:27;15.20;;;13.10;;
11539;SDS011;5826;54.756;9.192;2022-11-14T06:35:57;16.25;;;13.57;;
11539;SDS011;5826;54.756;9.192;2022-11-14T06:38:26;16.20;;;13.85;;
11539;SDS011;5826;54.756;9.192;2022-11-14T06:41:00;16.33;;;13.57;;
11539;SDS011;5826;54.756;9.192;2022-11-14T06:43:33;17.08;;;13.45;;
11539;SDS011;5826;54.756;9.192;2022-11-14T06:46:00;16.85;;;13.43;;
11539;SDS011;5826;54.756;9.192;2022-11-14T06:48:26;15.90;;;13.32;;
11539;SDS011;5826;54.756;9.192;2022-11-14T06:50:52;15.35;;;13.63;;
11539;SDS011;5826;54.756;9.192;2022-11-14T06:53:19;16.10;;;13.07;;
11539;SDS011;5826;54.756;9.192;2022-11-14T06:55:52;18.13;;;13.73;;
11539;SDS011;5826;54.756;9.192;2022-11-14T06:58:19;15.70;;;13.30;;
11539;SDS011;5826;54.756;9.192;2022-11-14T07:00:44;16.73;;;13.93;;
11539;SDS011;5826;54.756;9.192;2022-11-14T07:03:10;15.52;;;13.50;;
11539;SDS011;5826;54.756;9.192;2022-11-14T07:05:35;16.50;;;14.07;;
11539;SDS011;5826;54.756;9.192;2022-11-14T07:08:01;15.18;;;13.15;;
11539;SDS011;5826;54.756;9.192;2022-11-14T07:10:26;15.35;;;13.15;;
11539;SDS011;5826;54.756;9.192;2022-11-14T07:12:52;17.85;;;13.55;;
11539;SDS011;5826;54.756;9.192;2022-11-14T07:15:17;14.77;;;11.85;;
11539;SDS011;5826;54.756;9.192;2022-11-14T07:17:43;16.50;;;12.80;;
11539;SDS011;5826;54.756;9.192;2022-11-14T07:20:08;15.77;;;12.88;;
11539;SDS011;5826;54.756;9.192;2022-11-14T07:22:34;15.85;;;13.27;;
11539;SDS011;5826;54.756;9.192;2022-11-14T07:25:00;15.07;;;13.13;;
11539;SDS011;5826;54.756;9.192;2022-11-14T07:27:25;16.63;;;14.23;;
11539;SDS011;5826;54.756;9.192;2022-11-14T07:29:50;17.40;;;15.23;;
11539;SDS011;5826;54.756;9.192;2022-11-14T07:32:16;15.40;;;13.65;;
11539;SDS011;5826;54.756;9.192;2022-11-14T07:34:41;16.75;;;13.80;;
11539;SDS011;5826;54.756;9.192;2022-11-14T07:37:07;16.95;;;14.50;;
11539;SDS011;5826;54.756;9.192;2022-11-14T07:39:32;14.32;;;12.20;;
11539;SDS011;5826;54.756;9.192;2022-11-14T07:41:58;15.35;;;13.05;;
11539;SDS011;5826;54.756;9.192;2022-11-14T07:44:23;15.60;;;13.10;;
11539;SDS011;5826;54.756;9.192;2022-11-14T07:46:49;15.05;;;13.23;;
11539;SDS011;5826;54.756;9.192;2022-11-14T07:49:15;15.00;;;13.38;;
11539;SDS011;5826;54.756;9.192;2022-11-14T07:51:41;19.63;;;15.77;;
11539;SDS011;5826;54.756;9.192;2022-11-14T07:54:09;15.32;;;12.93;;
11539;SDS011;5826;54.756;9.192;2022-11-14T07:56:35;14.30;;;12.40;;
11539;SDS011;5826;54.756;9.192;2022-11-14T07:59:00;13.98;;;12.00;;
11539;SDS011;5826;54.756;9.192;2022-11-14T08:01:26;15.15;;;13.25;;
11539;SDS011;5826;54.756;9.192;2022-11-14T08:03:51;14.25;;;12.68;;
11539;SDS011;5826;54.756;9.192;2022-11-14T08:06:17;14.05;;;11.95;;
11539;SDS011;5826;54.756;9.192;2022-11-14T08:08:42;14.90;;;12.30;;
11539;SDS011;5826;54.756;9.192;2022-11-14T08:11:08;16.20;;;13.07;;
11539;SDS011;5826;54.756;9.192;2022-11-14T08:13:34;14.75;;;12.73;;
11539;SDS011;5826;54.756;9.192;2022-11-14T08:16:06;13.73;;;12.07;;
11539;SDS011;5826;54.756;9.192;2022-11-14T08:18:33;12.77;;;10.73;;
11539;SDS011;5826;54.756;9.192;2022-11-14T08:21:02;15.15;;;12.65;;
11539;SDS011;5826;54.756;9.192;2022-11-14T08:23:28;16.20;;;13.30;;
11539;SDS011;5826;54.756;9.192;2022-11-14T08:25:53;15.13;;;12.82;;
11539;SDS011;5826;54.756;9.192;2022-11-14T08:28:19;16.05;;;14.00;;
11539;SDS011;5826;54.756;9.192;2022-11-14T08:30:44;14.82;;;12.68;;
11539;SDS011;5826;54.756;9.192;2022-11-14T08:33:10;13.73;;;12.25;;
11539;SDS011;5826;54.756;9.192;2022-11-14T08:35:35;13.75;;;11.95;;
11539;SDS011;5826;54.756;9.192;2022-11-14T08:38:01;14.05;;;11.85;;
11539;SDS011;5826;54.756;9.192;2022-11-14T08:40:26;12.55;;;11.23;;
11539;SDS011;5826;54.756;9.192;2022-11-14T08:42:57;13.57;;;11.98;;
11539;SDS011;5826;54.756;9.192;2022-11-14T08:45:24;13.95;;;11.88;;
11539;SDS011;5826;54.756;9.192;2022-11-14T08:47:50;15.98;;;13.30;;
11539;SDS011;5826;54.756;9.192;2022-11-14T08:50:16;12.90;;;11.55;;
11539;SDS011;5826;54.756;9.192;2022-11-14T08:52:42;13.65;;;11.75;;
11539;SDS011;5826;54.756;9.192;2022-11-14T08:55:13;14.40;;;12.02;;
11539;SDS011;5826;54.756;9.192;2022-11-14T08:57:39;13.88;;;12.10;;
11539;SDS011;5826;54.756;9.192;2022-11-14T09:00:04;12.60;;;11.00;;
11539;SDS011;5826;54.756;9.192;2022-11-14T09:02:30;14.13;;;11.85;;
11539;SDS011;5826;54.756;9.192;2022-11-14T09:04:56;14.27;;;12.38;;
11539;SDS011;5826;54.756;9.192;2022-11-14T09:07:21;13.07;;;11.38;;
11539;SDS011;5826;54.756;9.192;2022-11-14T09:09:47;13.05;;;11.50;;
11539;SDS011;5826;54.756;9.192;2022-11-14T09:12:12;13.77;;;11.60;;
11539;SDS011;5826;54.756;9.192;2022-11-14T09:14:38;13.90;;;11.80;;
11539;SDS011;5826;54.756;9.192;2022-11-14T09:17:03;13.95;;;12.00;;
11539;SDS011;5826;54.756;9.192;2022-11-14T09:19:29;15.50;;;12.32;;
11539;SDS011;5826;54.756;9.192;2022-11-14T09:21:54;15.68;;;12.68;;
11539;SDS011;5826;54.756;9.192;2022-11-14T09:24:20;14.98;;;13.20;;
11539;SDS011;5826;54.756;9.192;2022-11-14T09:26:45;14.60;;;12.27;;
11539;SDS011;5826;54.756;9.192;2022-11-14T09:29:13;14.13;;;12.00;;
11539;SDS011;5826;54.756;9.192;2022-11-14T09:31:39;14.57;;;12.45;;
11539;SDS011;5826;54.756;9.192;2022-11-14T09:34:04;15.68;;;13.27;;
11539;SDS011;5826;54.756;9.192;2022-11-14T09:36:30;16.38;;;13.32;;
11539;SDS011;5826;54.756;9.192;2022-11-14T09:38:55;14.30;;;12.52;;
11539;SDS011;5826;54.756;9.192;2022-11-14T09:41:22;15.02;;;12.95;;
11539;SDS011;5826;54.756;9.192;2022-11-14T09:46:39;14.07;;;11.93;;
11539;SDS011;5826;54.756;9.192;2022-11-14T09:49:22;16.50;;;12.60;;
11539;SDS011;5826;54.756;9.192;2022-11-14T09:52:19;17.77;;;13.00;;
11539;SDS011;5826;54.756;9.192;2022-11-14T09:54:58;15.25;;;12.30;;
11539;SDS011;5826;54.756;9.192;2022-11-14T09:57:28;16.92;;;13.57;;
11539;SDS011;5826;54.756;9.192;2022-11-14T09:59:54;16.73;;;13.43;;
11539;SDS011;5826;54.756;9.192;2022-11-14T10:02:26;18.13;;;14.60;;
11539;SDS011;5826;54.756;9.192;2022-11-14T10:05:08;18.63;;;13.88;;
11539;SDS011;5826;54.756;9.192;2022-11-14T10:07:52;17.75;;;14.10;;
11539;SDS011;5826;54.756;9.192;2022-11-14T10:10:42;17.55;;;13.93;;
11539;SDS011;5826;54.756;9.192;2022-11-14T10:13:16;18.40;;;15.35;;
11539;SDS011;5826;54.756;9.192;2022-11-14T10:19:09;16.92;;;13.05;;
11539;SDS011;5826;54.756;9.192;2022-11-14T10:21:53;16.92;;;13.23;;
11539;SDS011;5826;54.756;9.192;2022-11-14T10:27:29;17.88;;;13.40;;
11539;SDS011;5826;54.756;9.192;2022-11-14T10:30:16;18.05;;;14.80;;
11539;SDS011;5826;54.756;9.192;2022-11-14T10:35:22;17.45;;;13.77;;
11539;SDS011;5826;54.756;9.192;2022-11-14T10:37:57;18.00;;;14.55;;
11539;SDS011;5826;54.756;9.192;2022-11-14T10:41:12;18.40;;;14.27;;
11539;SDS011;5826;54.756;9.192;2022-11-14T10:48:35;21.98;;;16.83;;
11539;SDS011;5826;54.756;9.192;2022-11-14T10:51:06;19.08;;;15.10;;
11539;SDS011;5826;54.756;9.192;2022-11-14T10:53:59;17.02;;;14.00;;
11539;SDS011;5826;54.756;9.192;2022-11-14T10:56:30;16.50;;;14.23;;
11539;SDS011;5826;54.756;9.192;2022-11-14T10:58:56;17.13;;;14.07;;
11539;SDS011;5826;54.756;9.192;2022-11-14T11:01:38;20.48;;;16.10;;
11539;SDS011;5826;54.756;9.192;2022-11-14T11:06:45;18.05;;;14.55;;
11539;SDS011;5826;54.756;9.192;2022-11-14T11:09:19;17.60;;;14.13;;
11539;SDS011;5826;54.756;9.192;2022-11-14T11:12:08;19.63;;;14.88;;
11539;SDS011;5826;54.756;9.192;2022-11-14T11:14:43;17.48;;;14.52;;
11539;SDS011;5826;54.756;9.192;2022-11-14T11:19:35;19.33;;;14.95;;
11539;SDS011;5826;54.756;9.192;2022-11-14T11:22:02;20.52;;;15.48;;
11539;SDS011;5826;54.756;9.192;2022-11-14T11:24:32;20.13;;;15.82;;
11539;SDS011;5826;54.756;9.192;2022-11-14T11:27:43;22.42;;;16.38;;
11539;SDS011;5826;54.756;9.192;2022-11-14T11:30:04;22.77;;;16.05;;
11539;SDS011;5826;54.756;9.192;2022-11-14T11:32:43;18.77;;;14.88;;
11539;SDS011;5826;54.756;9.192;2022-11-14T11:35:10;20.85;;;16.65;;
11539;SDS011;5826;54.756;9.192;2022-11-14T11:37:39;19.33;;;15.05;;
11539;SDS011;5826;54.756;9.192;2022-11-14T11:40:19;20.05;;;15.75;;
11539;SDS011;5826;54.756;9.192;2022-11-14T11:42:50;19.52;;;15.38;;
11539;SDS011;5826;54.756;9.192;2022-11-14T11:45:20;20.75;;;16.00;;
11539;SDS011;5826;54.756;9.192;2022-11-14T11:47:49;18.83;;;15.60;;
11539;SDS011;5826;54.756;9.192;2022-11-14T11:50:19;19.88;;;15.05;;
11539;SDS011;5826;54.756;9.192;2022-11-14T11:52:50;21.23;;;16.25;;
11539;SDS011;5826;54.756;9.192;2022-11-14T11:55:37;20.70;;;16.35;;
11539;SDS011;5826;54.756;9.192;2022-11-14T11:58:27;21.35;;;16.15;;
11539;SDS011;5826;54.756;9.192;2022-11-14T12:01:01;21.80;;;16.00;;
11539;SDS011;5826;54.756;9.192;2022-11-14T12:03:26;19.05;;;15.13;;
11539;SDS011;5826;54.756;9.192;2022-11-14T12:08:44;20.75;;;15.90;;
11539;SDS011;5826;54.756;9.192;2022-11-14T12:11:16;19.42;;;15.52;;
11539;SDS011;5826;54.756;9.192;2022-11-14T12:16:38;21.17;;;16.08;;
11539;SDS011;5826;54.756;9.192;2022-11-14T12:30:38;22.13;;;16.35;;
11539;SDS011;5826;54.756;9.192;2022-11-14T12:33:10;25.63;;;18.13;;
11539;SDS011;5826;54.756;9.192;2022-11-14T12:35:47;23.92;;;17.50;;
11539;SDS011;5826;54.756;9.192;2022-11-14T12:38:16;23.92;;;17.60;;
11539;SDS011;5826;54.756;9.192;2022-11-14T12:40:53;23.15;;;17.45;;
11539;SDS011;5826;54.756;9.192;2022-11-14T12:46:02;23.05;;;17.20;;
11539;SDS011;5826;54.756;9.192;2022-11-14T12:48:33;26.42;;;19.10;;
11539;SDS011;5826;54.756;9.192;2022-11-14T12:51:00;23.63;;;16.85;;
11539;SDS011;5826;54.756;9.192;2022-11-14T13:02:00;23.40;;;16.90;;
11539;SDS011;5826;54.756;9.192;2022-11-14T13:10:51;23.35;;;16.95;;
11539;SDS011;5826;54.756;9.192;2022-11-14T13:13:16;24.58;;;17.85;;
11539;SDS011;5826;54.756;9.192;2022-11-14T13:16:01;21.70;;;16.17;;
11539;SDS011;5826;54.756;9.192;2022-11-14T13:18:50;22.95;;;17.20;;
11539;SDS011;5826;54.756;9.192;2022-11-14T13:21:36;22.20;;;16.75;;
11539;SDS011;5826;54.756;9.192;2022-11-14T13:24:12;22.63;;;16.45;;
11539;SDS011;5826;54.756;9.192;2022-11-14T13:26:44;21.20;;;15.82;;
11539;SDS011;5826;54.756;9.192;2022-11-14T13:32:08;22.77;;;17.23;;
11539;SDS011;5826;54.756;9.192;2022-11-14T13:34:36;21.92;;;16.23;;
11539;SDS011;5826;54.756;9.192;2022-11-14T13:40:06;20.17;;;16.08;;
11539;SDS011;5826;54.756;9.192;2022-11-14T13:48:35;22.40;;;16.52;;
11539;SDS011;5826;54.756;9.192;2022-11-14T13:51:05;21.08;;;15.98;;
11539;SDS011;5826;54.756;9.192;2022-11-14T13:53:34;21.60;;;16.70;;
11539;SDS011;5826;54.756;9.192;2022-11-14T14:04:21;22.55;;;16.35;;
11539;SDS011;5826;54.756;9.192;2022-11-14T14:06:59;21.75;;;16.95;;
11539;SDS011;5826;54.756;9.192;2022-11-14T14:09:48;22.33;;;16.67;;
11539;SDS011;5826;54.756;9.192;2022-11-14T14:12:37;19.70;;;15.57;;
11539;SDS011;5826;54.756;9.192;2022-11-14T14:23:26;21.38;;;17.05;;
11539;SDS011;5826;54.756;9.192;2022-11-14T14:29:29;24.95;;;17.92;;
11539;SDS011;5826;54.756;9.192;2022-11-14T14:32:16;22.45;;;17.27;;
11539;SDS011;5826;54.756;9.192;2022-11-14T14:34:43;22.48;;;16.60;;
11539;SDS011;5826;54.756;9.192;2022-11-14T14:39:54;23.30;;;16.98;;
11539;SDS011;5826;54.756;9.192;2022-11-14T14:42:21;21.23;;;16.35;;
11539;SDS011;5826;54.756;9.192;2022-11-14T14:44:48;21.33;;;16.77;;
11539;SDS011;5826;54.756;9.192;2022-11-14T14:47:23;23.13;;;17.48;;
11539;SDS011;5826;54.756;9.192;2022-11-14T14:50:14;20.60;;;16.25;;
11539;SDS011;5826;54.756;9.192;2022-11-14T14:52:44;23.38;;;18.10;;
11539;SDS011;5826;54.756;9.192;2022-11-14T14:55:17;24.75;;;17.75;;
11539;SDS011;5826;54.756;9.192;2022-11-14T14:57:51;22.67;;;17.25;;
11539;SDS011;5826;54.756;9.192;2022-11-14T15:00:18;21.13;;;16.55;;
11539;SDS011;5826;54.756;9.192;2022-11-14T15:02:45;24.60;;;17.98;;
11539;SDS011;5826;54.756;9.192;2022-11-14T15:05:10;23.80;;;17.48;;
11539;SDS011;5826;54.756;9.192;2022-11-14T15:07:44;21.58;;;16.52;;
11539;SDS011;5826;54.756;9.192;2022-11-14T15:10:17;22.65;;;16.63;;
11539;SDS011;5826;54.756;9.192;2022-11-14T15:12:46;21.60;;;16.10;;
11539;SDS011;5826;54.756;9.192;2022-11-14T15:15:12;23.83;;;17.17;;
11539;SDS011;5826;54.756;9.192;2022-11-14T15:17:40;23.15;;;17.88;;
11539;SDS011;5826;54.756;9.192;2022-11-14T15:20:18;23.55;;;17.38;;
11539;SDS011;5826;54.756;9.192;2022-11-14T15:23:00;24.15;;;17.27;;
11539;SDS011;5826;54.756;9.192;2022-11-14T15:25:32;24.13;;;18.05;;
11539;SDS011;5826;54.756;9.192;2022-11-14T15:27:58;24.80;;;17.95;;
11539;SDS011;5826;54.756;9.192;2022-11-14T15:32:52;23.58;;;17.65;;
11539;SDS011;5826;54.756;9.192;2022-11-14T15:35:28;25.98;;;18.42;;
11539;SDS011;5826;54.756;9.192;2022-11-14T15:38:02;24.70;;;18.50;;
11539;SDS011;5826;54.756;9.192;2022-11-14T15:41:08;26.52;;;19.17;;
11539;SDS011;5826;54.756;9.192;2022-11-14T15:46:24;25.17;;;17.75;;
11539;SDS011;5826;54.756;9.192;2022-11-14T15:48:56;25.17;;;17.75;;
11539;SDS011;5826;54.756;9.192;2022-11-14T15:54:18;26.33;;;17.73;;
11539;SDS011;5826;54.756;9.192;2022-11-14T15:56:56;24.95;;;18.10;;
11539;SDS011;5826;54.756;9.192;2022-11-14T15:59:24;25.48;;;18.05;;
11539;SDS011;5826;54.756;9.192;2022-11-14T16:01:51;25.00;;;18.02;;
11539;SDS011;5826;54.756;9.192;2022-11-14T16:04:22;28.77;;;19.35;;
11539;SDS011;5826;54.756;9.192;2022-11-14T16:06:51;27.45;;;18.85;;
11539;SDS011;5826;54.756;9.192;2022-11-14T16:09:18;25.73;;;18.25;;
11539;SDS011;5826;54.756;9.192;2022-11-14T16:11:44;28.17;;;19.08;;
11539;SDS011;5826;54.756;9.192;2022-11-14T16:14:10;33.33;;;19.92;;
11539;SDS011;5826;54.756;9.192;2022-11-14T16:16:36;33.08;;;21.42;;
11539;SDS011;5826;54.756;9.192;2022-11-14T16:19:02;28.40;;;19.48;;
11539;SDS011;5826;54.756;9.192;2022-11-14T16:21:27;28.55;;;18.80;;
11539;SDS011;5826;54.756;9.192;2022-11-14T16:23:53;27.98;;;19.15;;
11539;SDS011;5826;54.756;9.192;2022-11-14T16:26:19;26.55;;;18.55;;
11539;SDS011;5826;54.756;9.192;2022-11-14T16:28:45;26.52;;;18.67;;
11539;SDS011;5826;54.756;9.192;2022-11-14T16:31:10;27.55;;;19.23;;